createdAt,value
2024-03-07T00:00:23.209Z,101084.19
2024-03-07T00:05:26.166Z,101081.44
2024-03-07T00:10:28.447Z,101076.34
2024-03-07T00:15:31.265Z,101083.59
2024-03-07T00:20:32.957Z,101075.50
2024-03-07T00:25:34.705Z,101078.00
2024-03-07T00:30:36.501Z,101076.19
2024-03-07T00:35:38.267Z,101069.13
2024-03-07T00:40:39.969Z,101066.44
2024-03-07T00:45:41.945Z,101067.13
2024-03-07T00:50:43.857Z,101053.88
2024-03-07T00:55:46.021Z,101050.06
2024-03-07T01:00:47.689Z,101041.78
2024-03-07T01:05:49.475Z,101044.31
2024-03-07T01:10:51.342Z,101040.94
2024-03-07T01:15:53.071Z,101043.34
2024-03-07T01:20:55.978Z,101031.81
2024-03-07T01:26:00.806Z,101038.78
2024-03-07T01:31:02.468Z,101034.97
2024-03-07T01:36:06.252Z,101041.00
2024-03-07T01:41:07.905Z,101031.25
2024-03-07T01:46:11.237Z,101033.16
2024-03-07T01:51:12.922Z,101032.13
2024-03-07T01:56:14.680Z,101034.41
2024-03-07T02:01:16.866Z,101035.94
2024-03-07T02:06:18.772Z,101028.59
2024-03-07T02:11:20.746Z,101024.03
2024-03-07T02:16:22.736Z,101021.16
2024-03-07T02:21:24.385Z,101012.00
2024-03-07T02:26:26.183Z,101009.25
2024-03-07T02:31:36.200Z,101001.13
2024-03-07T02:36:38.054Z,100993.22
2024-03-07T02:41:39.875Z,101003.22
2024-03-07T02:46:42.190Z,100996.84
2024-03-07T02:51:43.891Z,100985.78
2024-03-07T02:56:46.563Z,100991.97
2024-03-07T03:01:48.384Z,100991.69
2024-03-07T03:06:50.084Z,100998.28
2024-03-07T03:11:52.893Z,100999.06
2024-03-07T03:16:54.624Z,100992.84
2024-03-07T03:21:56.905Z,101002.66
2024-03-07T03:26:58.758Z,100987.59
2024-03-07T03:32:00.547Z,100986.94
2024-03-07T03:37:02.187Z,100982.53
2024-03-07T03:42:03.977Z,100986.94
2024-03-07T03:47:05.698Z,100995.72
2024-03-07T03:52:07.741Z,100984.53
2024-03-07T03:57:09.454Z,100984.72
2024-03-07T04:02:12.082Z,100990.16
2024-03-07T04:07:13.931Z,100994.94
2024-03-07T04:12:16.500Z,100987.50
2024-03-07T04:17:18.296Z,100988.84
2024-03-07T04:22:22.865Z,100987.22
2024-03-07T04:27:24.713Z,100987.50
2024-03-07T04:32:26.442Z,100984.25
2024-03-07T04:37:28.528Z,100990.81
2024-03-07T04:42:30.305Z,100986.25
2024-03-07T04:47:31.998Z,100999.91
2024-03-07T04:52:34.480Z,101002.84
2024-03-07T04:57:41.115Z,101008.47
2024-03-07T05:02:43.245Z,101010.66
2024-03-07T05:07:44.933Z,101009.13
2024-03-07T05:12:46.611Z,101008.94
2024-03-07T05:17:48.419Z,101018.84
2024-03-07T05:22:53.068Z,101011.75
2024-03-07T05:27:55.319Z,101018.69
2024-03-07T05:32:57.101Z,101016.38
2024-03-07T05:37:59.199Z,101020.00
2024-03-07T05:43:00.849Z,101031.97
2024-03-07T05:48:15.809Z,101024.69
2024-03-07T05:53:19.191Z,101029.63
2024-03-07T05:58:21.118Z,101037.78
2024-03-07T06:03:22.787Z,101042.88
2024-03-07T06:08:24.520Z,101041.06
2024-03-07T06:13:26.247Z,101054.91
2024-03-07T06:18:31.391Z,101048.81
2024-03-07T06:23:33.626Z,101053.63
2024-03-07T06:28:35.269Z,101065.63
2024-03-07T06:33:38.326Z,101071.69
2024-03-07T06:38:40.365Z,101060.50
2024-03-07T06:43:44.223Z,101067.06
2024-03-07T06:48:45.977Z,101064.72
2024-03-07T06:53:51.464Z,101071.09
2024-03-07T06:58:53.337Z,101069.09
2024-03-07T07:03:55.909Z,101071.50
2024-03-07T07:08:57.591Z,101080.63
2024-03-07T07:13:59.269Z,101071.91
2024-03-07T07:19:00.899Z,101082.16
2024-03-07T07:24:03.175Z,101079.38
2024-03-07T07:29:05.867Z,101082.38
2024-03-07T07:34:07.619Z,101081.59
2024-03-07T07:39:18.074Z,101081.66
2024-03-07T07:44:20.548Z,101084.16
2024-03-07T07:49:22.190Z,101087.84
2024-03-07T07:54:25.766Z,101089.47
2024-03-07T07:59:27.454Z,101085.50
2024-03-07T08:04:29.133Z,101076.34
2024-03-07T08:09:30.801Z,101081.69
2024-03-07T08:14:32.467Z,101086.31
2024-03-07T08:19:34.144Z,101086.47
2024-03-07T08:24:35.746Z,101087.53
2024-03-07T08:29:37.408Z,101083.09
2024-03-07T08:34:39.039Z,101081.13
2024-03-07T08:39:42.022Z,101073.50
2024-03-07T08:44:44.056Z,101075.03
2024-03-07T08:49:45.712Z,101072.44
2024-03-07T08:54:47.989Z,101083.13
2024-03-07T08:59:50.059Z,101090.88
2024-03-07T09:04:51.873Z,101088.41
2024-03-07T09:09:53.725Z,101088.47
2024-03-07T09:14:57.279Z,101075.25
2024-03-07T09:19:59.215Z,101071.72
2024-03-07T09:25:00.887Z,101067.66
2024-03-07T09:30:02.580Z,101069.28
2024-03-07T09:35:04.768Z,101076.72
2024-03-07T09:40:07.667Z,101065.47
2024-03-07T09:45:09.806Z,101064.41
2024-03-07T09:50:11.475Z,101062.50
2024-03-07T09:55:14.607Z,101058.72
2024-03-07T10:00:28.045Z,101057.78
2024-03-07T10:05:32.437Z,101055.78
2024-03-07T10:10:34.366Z,101057.69
2024-03-07T10:15:36.394Z,101059.59
2024-03-07T10:20:38.494Z,101055.50
2024-03-07T10:25:41.417Z,101054.09
2024-03-07T10:30:45.680Z,101057.03
2024-03-07T10:35:50.361Z,101051.19
2024-03-07T10:40:56.254Z,101053.44
2024-03-07T10:45:58.242Z,101053.13
2024-03-07T10:50:59.893Z,101057.94
2024-03-07T10:56:28.378Z,101060.47
2024-03-07T11:01:35.673Z,101061.44
2024-03-07T11:06:38.460Z,101066.03
2024-03-07T11:11:45.115Z,101065.66
2024-03-07T11:16:47.098Z,101060.19
2024-03-07T11:21:49.441Z,101066.44
2024-03-07T11:26:57.461Z,101063.09
2024-03-07T11:31:59.091Z,101062.75
2024-03-07T11:37:01.198Z,101052.91
2024-03-07T11:42:07.740Z,101058.44
2024-03-07T11:47:12.474Z,101055.78
2024-03-07T11:52:14.380Z,101049.41
2024-03-07T11:57:17.001Z,101042.94
2024-03-07T12:02:22.620Z,101035.00
2024-03-07T12:07:24.436Z,101045.59
2024-03-07T12:12:26.301Z,101044.06
2024-03-07T12:17:31.268Z,101042.94
2024-03-07T12:22:34.112Z,101038.63
2024-03-07T12:27:35.685Z,101025.94
2024-03-07T12:32:37.415Z,101029.34
2024-03-07T12:37:39.125Z,101035.75
2024-03-07T12:42:40.724Z,101027.53
2024-03-07T12:47:42.365Z,101023.75
2024-03-07T12:52:46.882Z,101015.78
2024-03-07T12:57:50.986Z,101029.41
2024-03-07T13:02:52.649Z,101014.38
2024-03-07T13:07:54.492Z,101014.72
2024-03-07T13:12:56.132Z,101019.16
2024-03-07T13:17:57.805Z,101007.13
2024-03-07T13:23:01.930Z,101001.44
2024-03-07T13:28:17.571Z,101005.28
2024-03-07T13:33:19.589Z,101013.03
2024-03-07T13:38:21.610Z,100999.56
2024-03-07T13:43:23.306Z,101000.56
2024-03-07T13:48:25.331Z,100997.78
2024-03-07T13:53:29.178Z,100986.97
2024-03-07T13:58:34.051Z,101000.28
2024-03-07T14:03:50.470Z,100994.59
2024-03-07T14:09:00.615Z,100984.31
2024-03-07T14:14:08.248Z,100991.34
2024-03-07T14:19:47.366Z,100992.53
2024-03-07T14:25:27.199Z,100993.50
2024-03-07T14:30:45.076Z,100984.25
2024-03-07T14:36:08.767Z,100982.09
2024-03-07T14:41:13.415Z,100989.06
2024-03-07T14:46:16.808Z,100978.97
2024-03-07T14:51:18.896Z,100970.63
2024-03-07T14:56:21.134Z,100967.72
2024-03-07T15:01:22.790Z,100970.19
2024-03-07T15:06:24.385Z,100963.56
2024-03-07T15:11:37.244Z,100968.59
2024-03-07T15:16:40.249Z,100959.16
2024-03-07T15:21:41.932Z,100971.91
2024-03-07T15:26:46.993Z,100973.06
2024-03-07T15:31:50.726Z,100959.69
2024-03-07T15:37:01.146Z,100957.00
2024-03-07T15:42:02.817Z,100968.03
2024-03-07T15:47:07.873Z,100970.81
2024-03-07T15:52:10.592Z,100964.13
2024-03-07T15:57:12.315Z,100963.25
2024-03-07T16:02:15.725Z,100962.72
2024-03-07T16:07:17.719Z,100960.13
2024-03-07T16:12:19.893Z,100967.94
2024-03-07T16:17:21.598Z,100955.72
2024-03-07T16:22:23.846Z,100946.19
2024-03-07T16:27:25.506Z,100961.69
2024-03-07T16:32:28.282Z,100961.31
2024-03-07T16:37:29.975Z,100957.44
2024-03-07T16:42:31.556Z,100956.78
2024-03-07T16:47:33.197Z,100962.59
2024-03-07T16:52:34.895Z,100964.63
2024-03-07T16:57:43.216Z,100977.53
2024-03-07T17:02:48.113Z,100977.94
2024-03-07T17:07:50.612Z,100981.19
2024-03-07T17:12:52.434Z,100978.81
2024-03-07T17:17:54.903Z,100976.25
2024-03-07T17:22:57.266Z,100987.88
2024-03-07T17:28:00.595Z,100988.28
2024-03-07T17:33:02.458Z,100994.88
2024-03-07T17:38:04.391Z,100999.34
2024-03-07T17:43:06.030Z,100999.03
2024-03-07T17:48:09.047Z,100994.94
2024-03-07T17:53:14.864Z,100996.84
2024-03-07T17:58:20.876Z,100992.34
2024-03-07T18:03:22.872Z,100994.06
2024-03-07T18:08:35.610Z,100987.97
2024-03-07T18:13:44.558Z,100989.22
2024-03-07T18:18:47.495Z,100994.66
2024-03-07T18:23:50.094Z,101000.38
2024-03-07T18:28:53.359Z,100980.91
2024-03-07T18:33:55.080Z,100995.97
2024-03-07T18:38:56.927Z,100991.78
2024-03-07T18:43:58.633Z,100996.44
2024-03-07T18:49:00.944Z,100992.53
2024-03-07T18:54:02.779Z,100991.84
2024-03-07T18:59:11.165Z,100992.09
2024-03-07T19:04:12.796Z,100986.09
2024-03-07T19:09:14.655Z,100989.91
2024-03-07T19:14:16.290Z,100989.81
2024-03-07T19:19:18.187Z,100978.66
2024-03-07T19:24:20.426Z,100974.34
2024-03-07T19:29:22.229Z,100974.63
2024-03-07T19:34:23.898Z,100975.75
2024-03-07T19:39:27.928Z,100974.13
2024-03-07T19:44:31.978Z,100967.09
2024-03-07T19:49:36.756Z,100970.88
2024-03-07T19:54:39.480Z,100973.75
2024-03-07T19:59:41.256Z,100966.69
2024-03-07T20:04:44.515Z,100963.06
2024-03-07T20:09:48.351Z,100960.50
2024-03-07T20:14:50.114Z,100946.47
2024-03-07T20:19:51.724Z,100949.22
2024-03-07T20:24:53.349Z,100950.28
2024-03-07T20:29:54.972Z,100945.03
2024-03-07T20:34:57.129Z,100939.78
2024-03-07T20:40:05.216Z,100938.94
2024-03-07T20:45:12.314Z,100941.50
2024-03-07T20:50:16.929Z,100938.13
2024-03-07T20:55:23.947Z,100932.97
2024-03-07T21:00:26.398Z,100929.81
2024-03-07T21:05:28.455Z,100928.19
2024-03-07T21:10:30.814Z,100921.13
2024-03-07T21:15:32.402Z,100927.41
2024-03-07T21:20:34.660Z,100923.03
2024-03-07T21:25:36.996Z,100926.47
2024-03-07T21:30:39.030Z,100920.09
2024-03-07T21:35:42.679Z,100921.81
2024-03-07T21:40:48.749Z,100923.63
2024-03-07T21:45:50.338Z,100917.53
2024-03-07T21:50:52.051Z,100921.91
2024-03-07T21:55:57.015Z,100916.56
2024-03-07T22:00:58.640Z,100911.22
2024-03-07T22:06:00.335Z,100915.53
2024-03-07T22:11:02.043Z,100907.53
2024-03-07T22:16:03.909Z,100908.28
2024-03-07T22:21:07.900Z,100911.72
2024-03-07T22:26:15.446Z,100911.22
2024-03-07T22:31:17.015Z,100902.47
2024-03-07T22:36:19.683Z,100904.84
2024-03-07T22:41:21.586Z,100898.56
2024-03-07T22:46:23.928Z,100897.63
2024-03-07T22:51:25.524Z,100893.16
2024-03-07T22:56:30.038Z,100888.66
2024-03-07T23:01:34.814Z,100881.63
2024-03-07T23:06:36.375Z,100879.81
2024-03-07T23:11:38.094Z,100877.16
2024-03-07T23:16:39.695Z,100865.63
2024-03-07T23:21:44.138Z,100865.81
2024-03-07T23:26:52.988Z,100865.03
2024-03-07T23:31:54.996Z,100863.09
2024-03-07T23:36:57.349Z,100856.03
2024-03-07T23:41:58.978Z,100852.59
2024-03-07T23:47:00.826Z,100848.00
2024-03-07T23:52:02.416Z,100853.00
2024-03-07T23:57:05.592Z,100849.06
